createdAt,value
2023-04-22T00:00:34.922Z,97197.00
2023-04-22T00:04:36.816Z,97192.00
2023-04-22T00:08:38.316Z,97194.00
2023-04-22T00:12:39.764Z,97190.00
2023-04-22T00:16:41.008Z,97185.00
2023-04-22T00:20:43.569Z,97179.00
2023-04-22T00:24:44.666Z,97185.00
2023-04-22T00:28:45.795Z,97183.00
2023-04-22T00:32:48.306Z,97183.00
2023-04-22T00:36:50.709Z,97180.00
2023-04-22T00:40:51.982Z,97181.00
2023-04-22T00:44:53.759Z,97183.00
2023-04-22T00:48:55.029Z,97181.00
2023-04-22T00:52:55.977Z,97183.00
2023-04-22T00:56:58.366Z,97187.00
2023-04-22T01:00:59.680Z,97182.00
2023-04-22T01:05:02.924Z,97182.00
2023-04-22T01:09:03.871Z,97180.00
2023-04-22T01:13:05.035Z,97175.00
2023-04-22T01:17:08.351Z,97183.00
2023-04-22T01:21:10.362Z,97181.00
2023-04-22T01:25:12.060Z,97176.00
2023-04-22T01:29:13.737Z,97172.00
2023-04-22T01:33:16.121Z,97182.00
2023-04-22T01:37:17.789Z,97173.00
2023-04-22T01:41:18.726Z,97187.00
2023-04-22T01:45:19.842Z,97182.00
2023-04-22T01:49:21.016Z,97185.00
2023-04-22T01:53:22.346Z,97189.00
2023-04-22T01:57:23.432Z,97089.00
2023-04-22T02:01:24.621Z,97196.00
2023-04-22T02:05:26.299Z,97207.00
2023-04-22T02:09:27.152Z,97202.00
2023-04-22T02:13:36.320Z,97200.00
2023-04-22T02:17:37.814Z,97199.00
2023-04-22T02:21:39.393Z,97202.00
2023-04-22T02:25:40.601Z,97204.00
2023-04-22T02:29:42.159Z,97199.00
2023-04-22T02:33:43.499Z,97197.00
2023-04-22T02:37:44.720Z,97199.00
2023-04-22T02:41:45.725Z,97192.00
2023-04-22T02:45:46.678Z,97203.00
2023-04-22T02:49:47.733Z,97202.00
2023-04-22T02:53:48.884Z,97190.00
2023-04-22T02:57:50.306Z,97188.00
2023-04-22T03:01:51.868Z,97191.00
2023-04-22T03:05:53.093Z,97187.00
2023-04-22T03:09:55.321Z,97193.00
2023-04-22T03:13:56.463Z,97198.00
2023-04-22T03:17:57.743Z,97192.00
2023-04-22T03:21:58.929Z,97194.00
2023-04-22T03:26:00.083Z,97190.00
2023-04-22T03:30:01.276Z,97196.00
2023-04-22T03:34:02.319Z,97196.00
2023-04-22T03:38:03.304Z,97193.00
2023-04-22T03:42:04.600Z,97193.00
2023-04-22T03:46:06.566Z,97192.00
2023-04-22T03:50:08.150Z,97194.00
2023-04-22T03:54:09.129Z,97194.00
2023-04-22T03:58:10.341Z,97197.00
2023-04-22T04:02:11.515Z,97206.00
2023-04-22T04:06:12.638Z,97200.00
2023-04-22T04:10:13.728Z,97202.00
2023-04-22T04:14:14.758Z,97210.00
2023-04-22T04:18:15.751Z,97204.00
2023-04-22T04:22:17.891Z,97210.00
2023-04-22T04:26:19.795Z,97203.00
2023-04-22T04:30:21.012Z,97199.00
2023-04-22T04:34:22.291Z,97198.00
2023-04-22T04:38:25.527Z,97193.00
2023-04-22T04:42:26.512Z,97196.00
2023-04-22T04:46:31.790Z,97187.00
2023-04-22T04:50:33.071Z,97178.00
2023-04-22T04:54:34.217Z,97179.00
2023-04-22T04:58:35.652Z,97184.00
2023-04-22T05:02:37.076Z,97221.00
2023-04-22T05:06:38.090Z,97195.00
2023-04-22T05:10:39.123Z,97178.00
2023-04-22T05:14:40.986Z,97187.00
2023-04-22T05:18:42.089Z,97180.00
2023-04-22T05:22:45.027Z,97185.00
2023-04-22T05:26:46.105Z,97190.00
2023-04-22T05:30:47.234Z,97185.00
2023-04-22T05:34:48.294Z,97183.00
2023-04-22T05:38:49.316Z,97182.00
2023-04-22T05:42:50.483Z,97189.00
2023-04-22T05:46:51.478Z,97203.00
2023-04-22T05:50:53.653Z,97212.00
2023-04-22T05:54:54.888Z,97203.00
2023-04-22T05:58:56.117Z,97202.00
2023-04-22T06:02:57.289Z,97209.00
2023-04-22T06:06:58.502Z,97201.00
2023-04-22T06:10:59.952Z,97196.00
2023-04-22T06:15:01.046Z,97199.00
2023-04-22T06:19:02.160Z,97207.00
2023-04-22T06:23:04.647Z,97214.00
2023-04-22T06:27:05.785Z,97208.00
2023-04-22T06:31:06.827Z,97218.00
2023-04-22T06:35:08.474Z,97201.00
2023-04-22T06:39:10.452Z,97199.00
2023-04-22T06:43:11.390Z,97186.00
2023-04-22T06:47:12.507Z,97194.00
2023-04-22T06:51:13.557Z,97196.00
2023-04-22T06:55:14.660Z,97200.00
2023-04-22T06:59:15.647Z,97185.00
2023-04-22T07:03:16.798Z,97198.00
2023-04-22T07:07:18.003Z,97201.00
2023-04-22T07:11:18.989Z,97206.00
2023-04-22T07:15:20.200Z,97196.00
2023-04-22T07:19:21.169Z,97194.00
2023-04-22T07:23:22.130Z,97192.00
2023-04-22T07:27:23.123Z,97194.00
2023-04-22T07:31:24.141Z,97195.00
2023-04-22T07:35:25.404Z,97201.00
2023-04-22T07:39:26.771Z,97201.00
2023-04-22T07:43:28.009Z,97199.00
2023-04-22T07:47:29.379Z,97203.00
2023-04-22T07:51:30.495Z,97201.00
2023-04-22T07:55:31.950Z,97189.00
2023-04-22T07:59:32.994Z,97201.00
2023-04-22T08:03:34.266Z,97187.00
2023-04-22T08:07:35.351Z,97200.00
2023-04-22T08:11:36.482Z,97198.00
2023-04-22T08:15:37.683Z,97116.00
2023-04-22T08:19:39.024Z,97194.00
2023-04-22T08:23:40.334Z,97199.00
2023-04-22T08:27:41.442Z,97179.00
2023-04-22T08:31:42.593Z,97176.00
2023-04-22T08:35:43.941Z,97174.00
2023-04-22T08:39:45.012Z,97180.00
2023-04-22T08:43:46.332Z,97175.00
2023-04-22T08:47:48.787Z,97178.00
2023-04-22T08:51:50.237Z,97171.00
2023-04-22T08:55:53.100Z,97174.00
2023-04-22T08:59:54.983Z,97170.00
2023-04-22T09:03:59.098Z,97171.00
2023-04-22T09:08:01.536Z,97166.00
2023-04-22T09:12:02.694Z,97174.00
2023-04-22T09:16:04.057Z,97170.00
2023-04-22T09:20:06.708Z,97174.00
2023-04-22T09:24:09.870Z,97169.00
2023-04-22T09:28:12.235Z,97177.00
2023-04-22T09:32:13.331Z,97173.00
2023-04-22T09:36:14.589Z,97183.00
2023-04-22T09:40:18.104Z,97178.00
2023-04-22T09:44:19.026Z,97187.00
2023-04-22T09:48:20.200Z,97184.00
2023-04-22T09:52:27.367Z,97191.00
2023-04-22T09:56:48.077Z,97197.00
2023-04-22T10:00:58.412Z,97188.00
2023-04-22T10:05:00.818Z,97191.00
2023-04-22T10:09:02.112Z,97194.00
2023-04-22T10:13:03.781Z,97183.00
2023-04-22T10:17:05.494Z,97181.00
2023-04-22T10:21:07.011Z,97183.00
2023-04-22T10:25:26.269Z,97174.00
2023-04-22T10:29:31.037Z,97178.00
2023-04-22T10:33:38.028Z,97179.00
2023-04-22T10:37:42.706Z,97170.00
2023-04-22T10:41:47.493Z,97181.00
2023-04-22T10:45:48.455Z,97179.00
2023-04-22T10:49:50.881Z,97170.00
2023-04-22T10:53:51.900Z,97165.00
2023-04-22T10:57:53.494Z,97159.00
2023-04-22T11:01:54.755Z,97153.00
2023-04-22T11:06:16.059Z,97147.00
2023-04-22T11:10:40.069Z,97155.00
2023-04-22T11:14:42.123Z,97149.00
2023-04-22T11:18:46.111Z,97153.00
2023-04-22T11:22:52.749Z,97145.00
2023-04-22T11:26:56.359Z,97141.00
2023-04-22T11:31:06.115Z,97138.00
2023-04-22T11:35:09.531Z,97140.00
2023-04-22T11:39:12.567Z,97135.00
2023-04-22T11:43:13.953Z,97137.00
2023-04-22T11:47:15.021Z,97127.00
2023-04-22T11:51:16.164Z,97120.00
2023-04-22T11:55:35.412Z,97115.00
2023-04-22T11:59:36.610Z,97117.00
2023-04-22T12:03:38.003Z,97110.00
2023-04-22T12:07:39.475Z,97115.00
2023-04-22T12:11:40.844Z,97109.00
2023-04-22T12:15:43.377Z,97104.00
2023-04-22T12:19:46.905Z,97102.00
2023-04-22T12:23:53.988Z,97103.00
2023-04-22T12:27:56.927Z,97108.00
2023-04-22T12:31:58.120Z,97106.00
2023-04-22T12:35:59.129Z,97106.00
2023-04-22T12:40:00.253Z,97101.00
2023-04-22T12:44:01.565Z,97099.00
2023-04-22T12:48:02.666Z,97098.00
2023-04-22T12:52:03.820Z,97097.00
2023-04-22T12:56:05.103Z,97087.00
2023-04-22T13:00:08.906Z,97097.00
2023-04-22T13:04:10.206Z,97101.00
2023-04-22T13:08:11.617Z,97087.00
2023-04-22T13:12:12.781Z,97101.00
2023-04-22T13:16:13.865Z,97102.00
2023-04-22T13:20:15.662Z,97096.00
2023-04-22T13:24:16.788Z,97096.00
2023-04-22T13:28:18.352Z,97088.00
2023-04-22T13:32:19.560Z,97094.00
2023-04-22T13:36:20.792Z,97093.00
2023-04-22T13:40:21.866Z,97089.00
2023-04-22T13:44:23.086Z,97089.00
2023-04-22T13:48:24.054Z,97091.00
2023-04-22T13:52:25.092Z,97087.00
2023-04-22T13:56:26.423Z,97110.00
2023-04-22T14:00:27.795Z,97078.00
2023-04-22T14:04:28.841Z,97085.00
2023-04-22T14:08:30.130Z,97084.00
2023-04-22T14:12:31.376Z,97084.00
2023-04-22T14:16:32.644Z,97083.00
2023-04-22T14:20:33.638Z,97079.00
2023-04-22T14:24:34.698Z,97076.00
2023-04-22T14:28:36.518Z,97081.00
2023-04-22T14:32:37.577Z,97090.00
2023-04-22T14:36:38.800Z,97097.00
2023-04-22T14:40:39.942Z,97096.00
2023-04-22T14:44:40.963Z,97102.00
2023-04-22T14:48:41.879Z,97098.00
2023-04-22T14:52:43.477Z,97093.00
2023-04-22T14:56:44.622Z,97093.00
2023-04-22T15:00:46.373Z,97087.00
2023-04-22T15:04:48.017Z,97092.00
2023-04-22T15:08:51.101Z,97098.00
2023-04-22T15:12:52.673Z,97103.00
2023-04-22T15:16:53.814Z,97092.00
2023-04-22T15:20:54.901Z,97079.00
2023-04-22T15:24:56.094Z,97076.00
2023-04-22T15:28:57.192Z,97071.00
2023-04-22T15:32:58.324Z,97080.00
2023-04-22T15:36:59.261Z,97085.00
2023-04-22T15:41:01.456Z,97079.00
2023-04-22T15:45:04.042Z,97072.00
2023-04-22T15:49:05.325Z,97068.00
2023-04-22T15:53:06.433Z,97072.00
2023-04-22T15:57:07.514Z,97070.00
2023-04-22T16:01:18.844Z,97079.00
2023-04-22T16:05:13.187Z,97086.00
2023-04-22T16:09:15.233Z,97084.00
2023-04-22T16:13:16.189Z,97087.00
2023-04-22T16:17:17.732Z,97080.00
2023-04-22T16:21:18.926Z,97078.00
2023-04-22T16:25:20.212Z,97087.00
2023-04-22T16:29:21.238Z,97081.00
2023-04-22T16:33:22.419Z,97078.00
2023-04-22T16:37:24.480Z,97084.00
2023-04-22T16:41:25.465Z,97068.00
2023-04-22T16:45:26.524Z,97072.00
2023-04-22T16:49:27.493Z,97083.00
2023-04-22T16:53:28.890Z,97074.00
2023-04-22T16:57:30.391Z,97071.00
2023-04-22T17:01:31.432Z,97075.00
2023-04-22T17:05:32.608Z,97066.00
2023-04-22T17:09:33.525Z,97062.00
2023-04-22T17:13:35.144Z,97067.00
2023-04-22T17:17:36.305Z,97066.00
2023-04-22T17:21:37.387Z,97064.00
2023-04-22T17:25:38.410Z,97071.00
2023-04-22T17:29:39.777Z,97069.00
2023-04-22T17:33:41.611Z,97061.00
2023-04-22T17:37:42.573Z,97066.00
2023-04-22T17:41:43.605Z,97069.00
2023-04-22T17:45:44.556Z,97079.00
2023-04-22T17:49:47.900Z,97074.00
2023-04-22T17:53:49.307Z,97077.00
2023-04-22T17:57:50.413Z,97073.00
2023-04-22T18:06:21.209Z,97083.00
2023-04-22T18:10:22.991Z,97081.00
2023-04-22T18:14:25.947Z,97087.00
2023-04-22T18:18:27.508Z,97081.00
2023-04-22T18:22:28.453Z,97086.00
2023-04-22T18:26:29.422Z,97088.00
2023-04-22T18:30:30.972Z,97093.00
2023-04-22T18:34:33.586Z,97098.00
2023-04-22T18:38:34.654Z,97099.00
2023-04-22T18:42:36.041Z,97105.00
2023-04-22T18:46:37.278Z,97111.00
2023-04-22T18:50:38.458Z,97104.00
2023-04-22T18:54:40.199Z,97116.00
2023-04-22T18:58:41.250Z,97116.00
2023-04-22T19:02:44.440Z,97120.00
2023-04-22T19:06:45.638Z,97132.00
2023-04-22T19:10:46.651Z,97031.00
2023-04-22T19:14:47.913Z,97138.00
2023-04-22T19:18:48.824Z,97143.00
2023-04-22T19:22:49.985Z,97137.00
2023-04-22T19:26:51.636Z,97142.00
2023-04-22T19:30:52.994Z,97135.00
2023-04-22T19:34:54.082Z,97132.00
2023-04-22T19:38:55.239Z,97138.00
2023-04-22T19:42:58.186Z,97134.00
2023-04-22T19:47:00.356Z,97132.00
2023-04-22T19:51:02.547Z,97130.00
2023-04-22T19:55:07.919Z,97037.00
2023-04-22T19:59:09.309Z,97147.00
2023-04-22T20:03:12.400Z,97137.00
2023-04-22T20:07:13.890Z,97124.00
2023-04-22T20:11:15.293Z,97120.00
2023-04-22T20:15:19.901Z,97026.00
2023-04-22T20:19:21.130Z,97137.00
2023-04-22T20:23:23.984Z,97139.00
2023-04-22T20:27:25.888Z,97131.00
2023-04-22T20:31:27.158Z,97139.00
2023-04-22T20:35:29.023Z,97134.00
2023-04-22T20:39:30.489Z,97147.00
2023-04-22T20:43:32.725Z,97144.00
2023-04-22T20:47:35.210Z,97142.00
2023-04-22T20:51:36.574Z,97145.00
2023-04-22T20:55:37.585Z,97137.00
2023-04-22T20:59:38.626Z,97139.00
2023-04-22T21:03:40.316Z,97133.00
2023-04-22T21:07:43.456Z,97147.00
2023-04-22T21:11:45.150Z,97135.00
2023-04-22T21:15:50.072Z,97135.00
2023-04-22T21:19:55.430Z,97133.00
2023-04-22T21:23:59.420Z,97138.00
2023-04-22T21:28:00.802Z,97138.00
2023-04-22T21:32:09.392Z,97133.00
2023-04-22T21:36:05.412Z,97126.00
2023-04-22T21:40:10.567Z,97138.00
2023-04-22T21:44:11.583Z,97130.00
2023-04-22T21:48:12.610Z,97139.00
2023-04-22T21:52:13.760Z,97138.00
2023-04-22T21:56:15.331Z,97132.00
2023-04-22T22:00:19.512Z,97132.00
2023-04-22T22:04:21.089Z,97133.00
2023-04-22T22:08:22.277Z,97135.00
2023-04-22T22:12:23.489Z,97131.00
2023-04-22T22:16:24.911Z,97135.00
2023-04-22T22:20:26.417Z,97136.00
2023-04-22T22:24:27.550Z,97131.00
2023-04-22T22:28:28.719Z,97138.00
2023-04-22T22:32:30.518Z,97129.00
2023-04-22T22:36:32.065Z,97123.00
2023-04-22T22:40:33.218Z,97129.00
2023-04-22T22:44:34.372Z,97131.00
2023-04-22T22:48:35.608Z,97132.00
2023-04-22T22:52:37.015Z,97137.00
2023-04-22T22:56:38.151Z,97141.00
2023-04-22T23:00:39.309Z,97142.00
2023-04-22T23:04:40.855Z,97136.00
2023-04-22T23:08:42.253Z,97137.00
2023-04-22T23:12:43.569Z,97128.00
2023-04-22T23:16:45.922Z,97141.00
2023-04-22T23:20:47.497Z,97135.00
2023-04-22T23:24:48.908Z,97124.00
2023-04-22T23:28:50.762Z,97123.00
2023-04-22T23:32:55.254Z,97117.00
2023-04-22T23:36:57.649Z,97122.00
2023-04-22T23:40:58.808Z,97128.00
2023-04-22T23:44:59.787Z,97121.00
2023-04-22T23:49:01.594Z,97123.00
2023-04-22T23:53:03.281Z,97117.00
2023-04-22T23:57:04.980Z,97116.00
